sensor_id;sensor_type;location;lat;lon;timestamp;pressure;altitude;pressure_sealevel;temperature;humidity
7834;BME280;3962;42.696;23.354;2022-12-18T00:01:57;95956.44;;;6.62;99.69
7834;BME280;3962;42.696;23.354;2022-12-18T00:04:25;95956.22;;;6.52;99.20
7834;BME280;3962;42.696;23.354;2022-12-18T00:06:52;95954.13;;;6.32;99.16
7834;BME280;3962;42.696;23.354;2022-12-18T00:09:20;95967.53;;;6.29;100.00
7834;BME280;3962;42.696;23.354;2022-12-18T00:11:47;95963.97;;;6.30;99.69
7834;BME280;3962;42.696;23.354;2022-12-18T00:14:15;95959.72;;;6.28;100.00
7834;BME280;3962;42.696;23.354;2022-12-18T00:16:43;95969.03;;;6.33;100.00
7834;BME280;3962;42.696;23.354;2022-12-18T00:19:11;95961.09;;;6.33;99.97
7834;BME280;3962;42.696;23.354;2022-12-18T00:21:38;95967.84;;;6.25;100.00
7834;BME280;3962;42.696;23.354;2022-12-18T00:24:06;95968.47;;;6.16;99.82
7834;BME280;3962;42.696;23.354;2022-12-18T00:26:34;95976.47;;;6.02;100.00
7834;BME280;3962;42.696;23.354;2022-12-18T00:29:04;95979.88;;;6.04;100.00
7834;BME280;3962;42.696;23.354;2022-12-18T00:31:33;95978.94;;;6.05;99.93
7834;BME280;3962;42.696;23.354;2022-12-18T00:34:00;95981.66;;;6.03;99.84
7834;BME280;3962;42.696;23.354;2022-12-18T00:36:29;95989.59;;;6.03;100.00
7834;BME280;3962;42.696;23.354;2022-12-18T00:38:57;95993.91;;;5.92;100.00
7834;BME280;3962;42.696;23.354;2022-12-18T00:41:25;95985.03;;;5.93;99.66
7834;BME280;3962;42.696;23.354;2022-12-18T00:44:11;95989.56;;;5.91;100.00
7834;BME280;3962;42.696;23.354;2022-12-18T00:46:39;95990.22;;;5.94;99.34
7834;BME280;3962;42.696;23.354;2022-12-18T00:49:06;95995.59;;;5.93;98.60
7834;BME280;3962;42.696;23.354;2022-12-18T00:51:33;96001.72;;;5.93;99.02
7834;BME280;3962;42.696;23.354;2022-12-18T00:54:00;96007.56;;;5.98;99.01
7834;BME280;3962;42.696;23.354;2022-12-18T00:56:27;95995.91;;;6.01;99.80
7834;BME280;3962;42.696;23.354;2022-12-18T00:58:54;96004.47;;;5.92;98.35
7834;BME280;3962;42.696;23.354;2022-12-18T01:01:21;96009.00;;;5.90;99.10
7834;BME280;3962;42.696;23.354;2022-12-18T01:03:49;96009.91;;;5.76;98.10
7834;BME280;3962;42.696;23.354;2022-12-18T01:06:16;96012.19;;;5.82;99.03
7834;BME280;3962;42.696;23.354;2022-12-18T01:08:43;96014.53;;;5.73;98.34
7834;BME280;3962;42.696;23.354;2022-12-18T01:11:12;96024.34;;;5.71;99.42
7834;BME280;3962;42.696;23.354;2022-12-18T01:13:40;96017.00;;;5.62;98.13
7834;BME280;3962;42.696;23.354;2022-12-18T01:16:07;96027.47;;;5.63;98.76
7834;BME280;3962;42.696;23.354;2022-12-18T01:18:34;96030.72;;;5.54;98.85
7834;BME280;3962;42.696;23.354;2022-12-18T01:21:05;96036.00;;;5.54;98.91
7834;BME280;3962;42.696;23.354;2022-12-18T01:23:32;96033.44;;;5.53;99.78
7834;BME280;3962;42.696;23.354;2022-12-18T01:26:04;96034.47;;;5.50;99.38
7834;BME280;3962;42.696;23.354;2022-12-18T01:28:31;96036.38;;;5.48;99.83
7834;BME280;3962;42.696;23.354;2022-12-18T01:30:58;96026.88;;;5.46;99.81
7834;BME280;3962;42.696;23.354;2022-12-18T01:33:35;96042.91;;;5.43;99.10
7834;BME280;3962;42.696;23.354;2022-12-18T01:36:03;96035.84;;;5.43;99.91
7834;BME280;3962;42.696;23.354;2022-12-18T01:38:30;96045.19;;;5.35;99.73
7834;BME280;3962;42.696;23.354;2022-12-18T01:40:57;96038.75;;;5.39;99.94
7834;BME280;3962;42.696;23.354;2022-12-18T01:43:45;96049.44;;;5.37;98.76
7834;BME280;3962;42.696;23.354;2022-12-18T01:46:13;96058.19;;;5.38;98.46
7834;BME280;3962;42.696;23.354;2022-12-18T01:48:40;96047.84;;;5.35;99.40
7834;BME280;3962;42.696;23.354;2022-12-18T01:51:10;96058.78;;;5.29;99.34
7834;BME280;3962;42.696;23.354;2022-12-18T01:53:39;96056.91;;;5.17;99.29
7834;BME280;3962;42.696;23.354;2022-12-18T01:56:07;96057.28;;;5.11;99.39
7834;BME280;3962;42.696;23.354;2022-12-18T01:58:41;96061.91;;;5.21;99.57
7834;BME280;3962;42.696;23.354;2022-12-18T02:01:10;96055.75;;;5.21;98.74
7834;BME280;3962;42.696;23.354;2022-12-18T02:03:37;96062.28;;;5.15;98.72
7834;BME280;3962;42.696;23.354;2022-12-18T02:06:13;96064.63;;;5.20;99.07
7834;BME280;3962;42.696;23.354;2022-12-18T02:08:48;96063.97;;;5.16;98.69
7834;BME280;3962;42.696;23.354;2022-12-18T02:11:22;96069.81;;;5.21;98.48
7834;BME280;3962;42.696;23.354;2022-12-18T02:14:03;96076.78;;;5.08;98.20
7834;BME280;3962;42.696;23.354;2022-12-18T02:16:39;96072.59;;;4.92;97.78
7834;BME280;3962;42.696;23.354;2022-12-18T02:19:20;96086.88;;;5.02;99.39
7834;BME280;3962;42.696;23.354;2022-12-18T02:22:06;96088.50;;;5.04;98.50
7834;BME280;3962;42.696;23.354;2022-12-18T02:24:39;96087.72;;;5.02;98.24
7834;BME280;3962;42.696;23.354;2022-12-18T02:27:10;96088.28;;;5.07;98.93
7834;BME280;3962;42.696;23.354;2022-12-18T02:29:40;96086.41;;;5.09;98.53
7834;BME280;3962;42.696;23.354;2022-12-18T02:32:12;96090.94;;;5.07;97.84
7834;BME280;3962;42.696;23.354;2022-12-18T02:34:41;96087.84;;;5.01;97.61
7834;BME280;3962;42.696;23.354;2022-12-18T02:37:12;96095.75;;;5.01;98.52
7834;BME280;3962;42.696;23.354;2022-12-18T02:39:42;96080.09;;;4.98;98.04
7834;BME280;3962;42.696;23.354;2022-12-18T02:42:11;96085.09;;;4.88;98.13
7834;BME280;3962;42.696;23.354;2022-12-18T02:44:42;96086.41;;;4.95;98.37
7834;BME280;3962;42.696;23.354;2022-12-18T02:47:10;96094.50;;;4.92;98.05
7834;BME280;3962;42.696;23.354;2022-12-18T02:49:44;96096.69;;;4.86;98.46
7834;BME280;3962;42.696;23.354;2022-12-18T02:52:20;96099.31;;;4.86;99.15
7834;BME280;3962;42.696;23.354;2022-12-18T02:54:55;96107.50;;;4.81;98.37
7834;BME280;3962;42.696;23.354;2022-12-18T02:57:33;96095.53;;;4.76;98.71
7834;BME280;3962;42.696;23.354;2022-12-18T03:00:04;96093.38;;;4.82;98.41
7834;BME280;3962;42.696;23.354;2022-12-18T03:02:38;96103.53;;;4.74;98.45
7834;BME280;3962;42.696;23.354;2022-12-18T03:05:10;96089.69;;;4.71;99.05
7834;BME280;3962;42.696;23.354;2022-12-18T03:07:53;96106.06;;;4.76;98.99
7834;BME280;3962;42.696;23.354;2022-12-18T03:10:26;96103.16;;;4.66;98.27
7834;BME280;3962;42.696;23.354;2022-12-18T03:13:01;96109.72;;;4.59;98.45
7834;BME280;3962;42.696;23.354;2022-12-18T03:15:31;96109.06;;;4.56;99.51
7834;BME280;3962;42.696;23.354;2022-12-18T03:18:04;96117.72;;;4.58;99.58
7834;BME280;3962;42.696;23.354;2022-12-18T03:20:33;96121.88;;;4.62;99.09
7834;BME280;3962;42.696;23.354;2022-12-18T03:23:06;96129.69;;;4.63;98.59
7834;BME280;3962;42.696;23.354;2022-12-18T03:25:36;96126.41;;;4.74;98.06
7834;BME280;3962;42.696;23.354;2022-12-18T03:28:08;96127.34;;;4.73;98.33
7834;BME280;3962;42.696;23.354;2022-12-18T03:30:38;96138.91;;;4.70;97.92
7834;BME280;3962;42.696;23.354;2022-12-18T03:33:10;96142.56;;;4.68;97.12
7834;BME280;3962;42.696;23.354;2022-12-18T03:35:40;96137.06;;;4.72;97.35
7834;BME280;3962;42.696;23.354;2022-12-18T03:38:08;96143.09;;;4.74;97.08
7834;BME280;3962;42.696;23.354;2022-12-18T03:40:43;96141.47;;;4.72;96.46
7834;BME280;3962;42.696;23.354;2022-12-18T03:43:18;96137.34;;;4.82;96.39
7834;BME280;3962;42.696;23.354;2022-12-18T03:45:51;96140.81;;;4.68;96.15
7834;BME280;3962;42.696;23.354;2022-12-18T03:48:24;96141.41;;;4.73;95.17
7834;BME280;3962;42.696;23.354;2022-12-18T03:50:56;96158.38;;;4.54;95.21
7834;BME280;3962;42.696;23.354;2022-12-18T03:53:32;96161.91;;;4.68;95.38
7834;BME280;3962;42.696;23.354;2022-12-18T03:56:01;96160.19;;;4.67;95.42
7834;BME280;3962;42.696;23.354;2022-12-18T03:58:32;96161.09;;;4.52;94.41
7834;BME280;3962;42.696;23.354;2022-12-18T04:01:02;96167.31;;;4.51;94.80
7834;BME280;3962;42.696;23.354;2022-12-18T04:03:31;96173.06;;;4.58;94.17
7834;BME280;3962;42.696;23.354;2022-12-18T04:05:59;96167.31;;;4.51;94.98
7834;BME280;3962;42.696;23.354;2022-12-18T04:08:27;96181.84;;;4.58;94.84
7834;BME280;3962;42.696;23.354;2022-12-18T04:10:55;96176.72;;;4.55;94.64
7834;BME280;3962;42.696;23.354;2022-12-18T04:13:22;96179.34;;;4.55;94.94
7834;BME280;3962;42.696;23.354;2022-12-18T04:15:51;96177.59;;;4.56;94.66
7834;BME280;3962;42.696;23.354;2022-12-18T04:18:18;96193.31;;;4.57;93.87
7834;BME280;3962;42.696;23.354;2022-12-18T04:20:45;96185.88;;;4.64;93.71
7834;BME280;3962;42.696;23.354;2022-12-18T04:23:12;96194.81;;;4.61;94.61
7834;BME280;3962;42.696;23.354;2022-12-18T04:25:39;96202.16;;;4.56;93.91
7834;BME280;3962;42.696;23.354;2022-12-18T04:28:06;96207.31;;;4.58;93.66
7834;BME280;3962;42.696;23.354;2022-12-18T04:30:32;96211.56;;;4.60;93.40
7834;BME280;3962;42.696;23.354;2022-12-18T04:33:01;96210.56;;;4.47;93.63
7834;BME280;3962;42.696;23.354;2022-12-18T04:35:27;96219.41;;;4.62;92.97
7834;BME280;3962;42.696;23.354;2022-12-18T04:37:54;96215.81;;;4.63;92.67
7834;BME280;3962;42.696;23.354;2022-12-18T04:40:21;96215.22;;;4.58;92.54
7834;BME280;3962;42.696;23.354;2022-12-18T04:42:48;96218.47;;;4.63;92.97
7834;BME280;3962;42.696;23.354;2022-12-18T04:45:14;96219.63;;;4.43;91.61
7834;BME280;3962;42.696;23.354;2022-12-18T04:47:41;96225.56;;;4.47;92.01
7834;BME280;3962;42.696;23.354;2022-12-18T04:50:09;96226.31;;;4.49;91.21
7834;BME280;3962;42.696;23.354;2022-12-18T04:52:36;96232.38;;;4.35;90.96
7834;BME280;3962;42.696;23.354;2022-12-18T04:55:04;96231.28;;;4.24;91.64
7834;BME280;3962;42.696;23.354;2022-12-18T04:57:30;96245.06;;;4.29;91.40
7834;BME280;3962;42.696;23.354;2022-12-18T04:59:57;96252.03;;;4.30;91.74
7834;BME280;3962;42.696;23.354;2022-12-18T05:02:24;96237.78;;;4.32;91.24
7834;BME280;3962;42.696;23.354;2022-12-18T05:04:51;96253.88;;;4.28;90.71
7834;BME280;3962;42.696;23.354;2022-12-18T05:07:19;96249.00;;;4.36;90.50
7834;BME280;3962;42.696;23.354;2022-12-18T05:09:46;96251.34;;;4.26;90.73
7834;BME280;3962;42.696;23.354;2022-12-18T05:12:12;96249.97;;;4.19;90.13
7834;BME280;3962;42.696;23.354;2022-12-18T05:14:39;96256.41;;;4.29;91.26
7834;BME280;3962;42.696;23.354;2022-12-18T05:17:06;96270.00;;;4.37;91.12
7834;BME280;3962;42.696;23.354;2022-12-18T05:19:33;96275.81;;;4.28;89.89
7834;BME280;3962;42.696;23.354;2022-12-18T05:22:00;96274.03;;;4.29;90.18
7834;BME280;3962;42.696;23.354;2022-12-18T05:24:28;96276.13;;;4.22;90.72
7834;BME280;3962;42.696;23.354;2022-12-18T05:26:55;96285.84;;;4.22;90.99
7834;BME280;3962;42.696;23.354;2022-12-18T05:29:22;96290.84;;;4.26;90.30
7834;BME280;3962;42.696;23.354;2022-12-18T05:31:49;96291.16;;;4.36;90.81
7834;BME280;3962;42.696;23.354;2022-12-18T05:34:16;96279.38;;;4.27;90.38
7834;BME280;3962;42.696;23.354;2022-12-18T05:36:43;96290.44;;;4.18;90.23
7834;BME280;3962;42.696;23.354;2022-12-18T05:39:09;96288.28;;;4.25;90.96
7834;BME280;3962;42.696;23.354;2022-12-18T05:41:38;96299.75;;;4.39;90.12
7834;BME280;3962;42.696;23.354;2022-12-18T05:44:04;96295.69;;;4.34;89.69
7834;BME280;3962;42.696;23.354;2022-12-18T05:46:31;96305.81;;;4.10;88.67
7834;BME280;3962;42.696;23.354;2022-12-18T05:48:59;96299.50;;;4.13;89.05
7834;BME280;3962;42.696;23.354;2022-12-18T05:51:26;96309.38;;;4.09;89.24
7834;BME280;3962;42.696;23.354;2022-12-18T05:53:53;96286.06;;;4.02;88.58
7834;BME280;3962;42.696;23.354;2022-12-18T05:56:22;96298.81;;;3.94;89.65
7834;BME280;3962;42.696;23.354;2022-12-18T05:58:53;96304.75;;;3.97;88.68
7834;BME280;3962;42.696;23.354;2022-12-18T06:01:21;96303.47;;;3.89;88.80
7834;BME280;3962;42.696;23.354;2022-12-18T06:03:49;96307.13;;;4.02;89.10
7834;BME280;3962;42.696;23.354;2022-12-18T06:06:16;96310.47;;;3.90;88.67
7834;BME280;3962;42.696;23.354;2022-12-18T06:08:44;96313.09;;;3.90;88.98
7834;BME280;3962;42.696;23.354;2022-12-18T06:11:11;96314.34;;;3.83;89.15
7834;BME280;3962;42.696;23.354;2022-12-18T06:13:38;96318.75;;;3.82;89.29
7834;BME280;3962;42.696;23.354;2022-12-18T06:16:07;96324.06;;;3.98;89.21
7834;BME280;3962;42.696;23.354;2022-12-18T06:18:34;96317.41;;;3.91;88.09
7834;BME280;3962;42.696;23.354;2022-12-18T06:21:01;96329.19;;;3.84;89.10
7834;BME280;3962;42.696;23.354;2022-12-18T06:23:28;96329.91;;;3.87;89.39
7834;BME280;3962;42.696;23.354;2022-12-18T06:25:55;96342.38;;;3.99;89.42
7834;BME280;3962;42.696;23.354;2022-12-18T06:28:22;96342.38;;;3.99;88.97
7834;BME280;3962;42.696;23.354;2022-12-18T06:30:49;96349.19;;;4.03;88.57
7834;BME280;3962;42.696;23.354;2022-12-18T06:33:17;96341.97;;;4.07;88.27
7834;BME280;3962;42.696;23.354;2022-12-18T06:35:44;96343.81;;;4.05;87.87
7834;BME280;3962;42.696;23.354;2022-12-18T06:38:10;96353.72;;;4.01;88.27
7834;BME280;3962;42.696;23.354;2022-12-18T06:40:38;96362.13;;;4.08;88.26
7834;BME280;3962;42.696;23.354;2022-12-18T06:43:05;96368.91;;;4.12;88.21
7834;BME280;3962;42.696;23.354;2022-12-18T06:45:33;96364.19;;;4.18;87.26
7834;BME280;3962;42.696;23.354;2022-12-18T06:48:00;96369.25;;;4.06;86.56
7834;BME280;3962;42.696;23.354;2022-12-18T06:50:28;96370.38;;;4.17;86.97
7834;BME280;3962;42.696;23.354;2022-12-18T06:52:55;96370.28;;;4.19;86.23
7834;BME280;3962;42.696;23.354;2022-12-18T06:55:22;96373.09;;;4.31;87.06
7834;BME280;3962;42.696;23.354;2022-12-18T06:57:48;96371.56;;;4.43;86.12
7834;BME280;3962;42.696;23.354;2022-12-18T07:00:16;96368.50;;;4.35;84.33
7834;BME280;3962;42.696;23.354;2022-12-18T07:02:42;96381.69;;;4.35;84.40
7834;BME280;3962;42.696;23.354;2022-12-18T07:05:09;96380.59;;;4.39;84.63
7834;BME280;3962;42.696;23.354;2022-12-18T07:07:37;96383.03;;;4.26;84.39
7834;BME280;3962;42.696;23.354;2022-12-18T07:10:05;96393.47;;;4.28;83.28
7834;BME280;3962;42.696;23.354;2022-12-18T07:12:31;96385.44;;;4.31;83.10
7834;BME280;3962;42.696;23.354;2022-12-18T07:14:58;96395.28;;;4.27;83.98
7834;BME280;3962;42.696;23.354;2022-12-18T07:17:25;96393.47;;;4.28;83.26
7834;BME280;3962;42.696;23.354;2022-12-18T07:19:52;96376.91;;;4.10;84.34
7834;BME280;3962;42.696;23.354;2022-12-18T07:22:18;96402.13;;;4.14;84.72
7834;BME280;3962;42.696;23.354;2022-12-18T07:24:47;96392.91;;;4.38;85.90
7834;BME280;3962;42.696;23.354;2022-12-18T07:27:14;96397.09;;;4.10;85.13
7834;BME280;3962;42.696;23.354;2022-12-18T07:29:41;96404.84;;;4.13;85.19
7834;BME280;3962;42.696;23.354;2022-12-18T07:32:08;96408.09;;;4.18;84.87
7834;BME280;3962;42.696;23.354;2022-12-18T07:34:34;96399.06;;;4.06;85.55
7834;BME280;3962;42.696;23.354;2022-12-18T07:37:01;96409.50;;;4.08;85.46
7834;BME280;3962;42.696;23.354;2022-12-18T07:39:28;96405.69;;;4.13;85.88
7834;BME280;3962;42.696;23.354;2022-12-18T07:41:56;96409.28;;;4.12;85.25
7834;BME280;3962;42.696;23.354;2022-12-18T07:44:37;96418.09;;;4.11;86.42
7834;BME280;3962;42.696;23.354;2022-12-18T07:47:04;96422.50;;;4.11;86.06
7834;BME280;3962;42.696;23.354;2022-12-18T07:49:31;96419.72;;;4.14;86.53
7834;BME280;3962;42.696;23.354;2022-12-18T07:51:58;96414.78;;;4.08;86.23
7834;BME280;3962;42.696;23.354;2022-12-18T07:54:25;96424.81;;;4.01;86.83
7834;BME280;3962;42.696;23.354;2022-12-18T07:56:51;96422.16;;;4.01;86.78
7834;BME280;3962;42.696;23.354;2022-12-18T07:59:19;96424.38;;;4.09;87.65
7834;BME280;3962;42.696;23.354;2022-12-18T08:01:46;96431.03;;;4.16;86.77
7834;BME280;3962;42.696;23.354;2022-12-18T08:04:13;96435.84;;;4.08;87.05
7834;BME280;3962;42.696;23.354;2022-12-18T08:06:40;96440.59;;;4.01;87.54
7834;BME280;3962;42.696;23.354;2022-12-18T08:09:07;96445.63;;;4.06;87.54
7834;BME280;3962;42.696;23.354;2022-12-18T08:11:34;96449.34;;;4.02;87.45
7834;BME280;3962;42.696;23.354;2022-12-18T08:14:01;96450.69;;;3.93;88.18
7834;BME280;3962;42.696;23.354;2022-12-18T08:16:29;96463.59;;;3.98;88.23
7834;BME280;3962;42.696;23.354;2022-12-18T08:18:55;96467.94;;;3.99;88.54
7834;BME280;3962;42.696;23.354;2022-12-18T08:21:24;96470.00;;;4.09;87.81
7834;BME280;3962;42.696;23.354;2022-12-18T08:23:53;96476.03;;;4.11;87.63
7834;BME280;3962;42.696;23.354;2022-12-18T08:26:20;96478.56;;;4.13;86.87
7834;BME280;3962;42.696;23.354;2022-12-18T08:28:47;96479.13;;;4.19;86.90
7834;BME280;3962;42.696;23.354;2022-12-18T08:31:14;96477.09;;;4.24;86.59
7834;BME280;3962;42.696;23.354;2022-12-18T08:33:42;96471.53;;;4.13;86.50
7834;BME280;3962;42.696;23.354;2022-12-18T08:36:09;96479.75;;;4.07;86.48
7834;BME280;3962;42.696;23.354;2022-12-18T08:38:36;96473.84;;;4.19;86.27
7834;BME280;3962;42.696;23.354;2022-12-18T08:41:05;96481.63;;;4.05;85.18
7834;BME280;3962;42.696;23.354;2022-12-18T08:43:32;96478.06;;;4.06;85.75
7834;BME280;3962;42.696;23.354;2022-12-18T08:46:16;96487.09;;;4.18;84.86
7834;BME280;3962;42.696;23.354;2022-12-18T08:48:45;96484.78;;;4.12;84.07
7834;BME280;3962;42.696;23.354;2022-12-18T08:51:12;96486.03;;;4.22;84.71
7834;BME280;3962;42.696;23.354;2022-12-18T08:53:39;96487.31;;;4.30;83.80
7834;BME280;3962;42.696;23.354;2022-12-18T08:56:07;96495.66;;;4.38;84.40
7834;BME280;3962;42.696;23.354;2022-12-18T08:58:34;96496.03;;;4.48;83.45
7834;BME280;3962;42.696;23.354;2022-12-18T09:01:01;96488.69;;;4.37;83.52
7834;BME280;3962;42.696;23.354;2022-12-18T09:03:28;96486.84;;;4.22;83.53
7834;BME280;3962;42.696;23.354;2022-12-18T09:05:57;96481.97;;;4.32;82.54
7834;BME280;3962;42.696;23.354;2022-12-18T09:08:23;96480.78;;;4.37;82.58
7834;BME280;3962;42.696;23.354;2022-12-18T09:10:51;96471.38;;;4.49;82.37
7834;BME280;3962;42.696;23.354;2022-12-18T09:13:18;96481.22;;;4.45;81.68
7834;BME280;3962;42.696;23.354;2022-12-18T09:15:46;96484.03;;;4.42;81.43
7834;BME280;3962;42.696;23.354;2022-12-18T09:18:15;96475.56;;;4.20;81.23
7834;BME280;3962;42.696;23.354;2022-12-18T09:20:43;96479.66;;;4.26;81.53
7834;BME280;3962;42.696;23.354;2022-12-18T09:23:12;96481.41;;;4.42;81.22
7834;BME280;3962;42.696;23.354;2022-12-18T09:25:39;96479.22;;;4.50;80.42
7834;BME280;3962;42.696;23.354;2022-12-18T09:28:09;96476.47;;;4.52;79.79
7834;BME280;3962;42.696;23.354;2022-12-18T09:30:37;96486.78;;;4.56;80.02
7834;BME280;3962;42.696;23.354;2022-12-18T09:33:04;96494.28;;;4.64;79.87
7834;BME280;3962;42.696;23.354;2022-12-18T09:35:30;96483.31;;;4.71;79.69
7834;BME280;3962;42.696;23.354;2022-12-18T09:37:57;96483.81;;;4.62;79.36
7834;BME280;3962;42.696;23.354;2022-12-18T09:40:31;96483.13;;;4.59;79.27
7834;BME280;3962;42.696;23.354;2022-12-18T09:43:01;96487.50;;;4.75;78.88
7834;BME280;3962;42.696;23.354;2022-12-18T09:45:31;96490.97;;;4.76;78.19
7834;BME280;3962;42.696;23.354;2022-12-18T09:48:03;96483.97;;;4.59;78.56
7834;BME280;3962;42.696;23.354;2022-12-18T09:50:33;96493.59;;;4.76;79.35
7834;BME280;3962;42.696;23.354;2022-12-18T09:53:04;96484.84;;;4.91;78.36
7834;BME280;3962;42.696;23.354;2022-12-18T09:55:36;96484.44;;;4.98;77.62
7834;BME280;3962;42.696;23.354;2022-12-18T09:58:13;96483.03;;;4.76;78.33
7834;BME280;3962;42.696;23.354;2022-12-18T10:00:42;96486.28;;;4.81;78.92
7834;BME280;3962;42.696;23.354;2022-12-18T10:03:11;96489.88;;;4.95;77.50
7834;BME280;3962;42.696;23.354;2022-12-18T10:05:45;96477.88;;;4.90;77.17
7834;BME280;3962;42.696;23.354;2022-12-18T10:08:19;96485.53;;;4.79;76.80
7834;BME280;3962;42.696;23.354;2022-12-18T10:10:52;96481.72;;;4.69;77.25
7834;BME280;3962;42.696;23.354;2022-12-18T10:13:23;96488.59;;;4.87;77.52
7834;BME280;3962;42.696;23.354;2022-12-18T10:16:07;96487.56;;;5.05;76.95
7834;BME280;3962;42.696;23.354;2022-12-18T10:21:30;96479.00;;;4.86;77.42
7834;BME280;3962;42.696;23.354;2022-12-18T10:24:03;96496.00;;;4.80;76.99
7834;BME280;3962;42.696;23.354;2022-12-18T10:26:39;96492.94;;;5.03;76.62
7834;BME280;3962;42.696;23.354;2022-12-18T10:29:09;96494.38;;;5.24;76.46
7834;BME280;3962;42.696;23.354;2022-12-18T10:31:38;96490.63;;;5.13;76.85
7834;BME280;3962;42.696;23.354;2022-12-18T10:34:09;96487.16;;;5.12;76.28
7834;BME280;3962;42.696;23.354;2022-12-18T10:36:36;96492.50;;;5.26;75.72
7834;BME280;3962;42.696;23.354;2022-12-18T10:39:15;96478.66;;;5.07;75.55
7834;BME280;3962;42.696;23.354;2022-12-18T10:41:43;96479.31;;;5.26;75.27
7834;BME280;3962;42.696;23.354;2022-12-18T10:44:12;96487.47;;;5.37;75.49
7834;BME280;3962;42.696;23.354;2022-12-18T10:46:42;96487.56;;;5.36;75.13
7834;BME280;3962;42.696;23.354;2022-12-18T10:49:19;96472.38;;;5.55;75.42
7834;BME280;3962;42.696;23.354;2022-12-18T10:51:48;96481.69;;;5.76;76.39
7834;BME280;3962;42.696;23.354;2022-12-18T10:54:17;96486.56;;;5.68;74.83
7834;BME280;3962;42.696;23.354;2022-12-18T10:56:46;96483.91;;;5.68;74.79
7834;BME280;3962;42.696;23.354;2022-12-18T10:59:14;96485.53;;;5.70;73.94
7834;BME280;3962;42.696;23.354;2022-12-18T11:01:47;96475.03;;;5.55;74.39
7834;BME280;3962;42.696;23.354;2022-12-18T11:04:18;96481.00;;;5.43;76.20
7834;BME280;3962;42.696;23.354;2022-12-18T11:06:54;96483.03;;;5.38;75.07
7834;BME280;3962;42.696;23.354;2022-12-18T11:09:22;96491.69;;;5.55;75.32
7834;BME280;3962;42.696;23.354;2022-12-18T11:11:52;96471.53;;;5.54;75.72
7834;BME280;3962;42.696;23.354;2022-12-18T11:14:22;96486.97;;;5.31;75.58
7834;BME280;3962;42.696;23.354;2022-12-18T11:16:50;96489.00;;;5.41;75.64
7834;BME280;3962;42.696;23.354;2022-12-18T11:19:28;96487.13;;;5.28;76.15
7834;BME280;3962;42.696;23.354;2022-12-18T11:21:59;96478.03;;;5.33;76.58
7834;BME280;3962;42.696;23.354;2022-12-18T11:24:29;96485.25;;;5.45;75.14
7834;BME280;3962;42.696;23.354;2022-12-18T11:27:00;96499.06;;;5.35;75.03
7834;BME280;3962;42.696;23.354;2022-12-18T11:29:33;96482.34;;;5.34;74.14
7834;BME280;3962;42.696;23.354;2022-12-18T11:32:24;96494.66;;;5.35;75.04
7834;BME280;3962;42.696;23.354;2022-12-18T11:34:59;96489.44;;;5.18;75.64
7834;BME280;3962;42.696;23.354;2022-12-18T11:37:28;96483.31;;;5.33;75.84
7834;BME280;3962;42.696;23.354;2022-12-18T11:39:59;96480.72;;;5.47;74.69
7834;BME280;3962;42.696;23.354;2022-12-18T11:42:35;96481.84;;;5.43;75.83
7834;BME280;3962;42.696;23.354;2022-12-18T11:45:17;96486.69;;;5.51;74.78
7834;BME280;3962;42.696;23.354;2022-12-18T11:47:51;96490.69;;;5.42;74.78
7834;BME280;3962;42.696;23.354;2022-12-18T11:50:24;96482.63;;;5.30;74.88
7834;BME280;3962;42.696;23.354;2022-12-18T11:52:51;96493.59;;;5.38;74.56
7834;BME280;3962;42.696;23.354;2022-12-18T11:55:26;96493.50;;;5.39;75.28
7834;BME280;3962;42.696;23.354;2022-12-18T11:58:00;96488.31;;;5.38;74.86
7834;BME280;3962;42.696;23.354;2022-12-18T12:00:30;96480.25;;;5.25;74.18
7834;BME280;3962;42.696;23.354;2022-12-18T12:05:59;96482.09;;;5.39;75.05
7834;BME280;3962;42.696;23.354;2022-12-18T12:08:42;96478.97;;;5.32;74.14
7834;BME280;3962;42.696;23.354;2022-12-18T12:11:18;96481.53;;;5.34;74.25
7834;BME280;3962;42.696;23.354;2022-12-18T12:13:55;96486.38;;;5.26;75.15
7834;BME280;3962;42.696;23.354;2022-12-18T12:16:28;96486.19;;;5.29;75.08
7834;BME280;3962;42.696;23.354;2022-12-18T12:19:06;96481.59;;;5.32;74.41
7834;BME280;3962;42.696;23.354;2022-12-18T12:21:40;96479.81;;;5.33;75.66
7834;BME280;3962;42.696;23.354;2022-12-18T12:24:26;96488.09;;;5.27;74.94
7834;BME280;3962;42.696;23.354;2022-12-18T12:27:00;96488.50;;;5.35;74.73
7834;BME280;3962;42.696;23.354;2022-12-18T12:29:42;96490.22;;;5.20;75.27
7834;BME280;3962;42.696;23.354;2022-12-18T12:32:25;96502.16;;;5.27;76.08
7834;BME280;3962;42.696;23.354;2022-12-18T12:35:03;96489.44;;;5.34;75.28
7834;BME280;3962;42.696;23.354;2022-12-18T12:37:41;96492.00;;;5.35;75.61
7834;BME280;3962;42.696;23.354;2022-12-18T12:40:12;96501.00;;;5.31;74.21
7834;BME280;3962;42.696;23.354;2022-12-18T12:42:44;96493.59;;;5.38;75.16
7834;BME280;3962;42.696;23.354;2022-12-18T12:45:36;96499.72;;;5.38;75.62
7834;BME280;3962;42.696;23.354;2022-12-18T12:48:05;96485.34;;;5.44;74.94
7834;BME280;3962;42.696;23.354;2022-12-18T12:50:37;96485.06;;;5.48;74.42
7834;BME280;3962;42.696;23.354;2022-12-18T12:53:07;96490.78;;;5.41;74.36
7834;BME280;3962;42.696;23.354;2022-12-18T12:55:35;96492.75;;;5.37;75.26
7834;BME280;3962;42.696;23.354;2022-12-18T12:58:10;96504.16;;;5.38;75.04
7834;BME280;3962;42.696;23.354;2022-12-18T13:00:46;96510.66;;;5.62;75.95
7834;BME280;3962;42.696;23.354;2022-12-18T13:03:26;96500.63;;;5.53;75.40
7834;BME280;3962;42.696;23.354;2022-12-18T13:05:59;96515.38;;;5.57;75.25
7834;BME280;3962;42.696;23.354;2022-12-18T13:08:28;96512.56;;;5.60;74.56
7834;BME280;3962;42.696;23.354;2022-12-18T13:10:57;96524.78;;;5.47;74.70
7834;BME280;3962;42.696;23.354;2022-12-18T13:13:49;96506.63;;;5.41;74.56
7834;BME280;3962;42.696;23.354;2022-12-18T13:16:20;96526.91;;;5.25;75.01
7834;BME280;3962;42.696;23.354;2022-12-18T13:18:50;96529.34;;;5.28;74.63
7834;BME280;3962;42.696;23.354;2022-12-18T13:21:22;96515.75;;;5.20;75.66
7834;BME280;3962;42.696;23.354;2022-12-18T13:23:50;96527.84;;;5.24;75.12
7834;BME280;3962;42.696;23.354;2022-12-18T13:26:31;96527.66;;;5.27;74.90
7834;BME280;3962;42.696;23.354;2022-12-18T13:29:00;96535.16;;;5.19;75.31
7834;BME280;3962;42.696;23.354;2022-12-18T13:31:59;96538.47;;;5.22;74.85
7834;BME280;3962;42.696;23.354;2022-12-18T13:34:27;96540.00;;;5.26;75.52
7834;BME280;3962;42.696;23.354;2022-12-18T13:36:57;96541.53;;;5.30;75.69
7834;BME280;3962;42.696;23.354;2022-12-18T13:39:44;96535.81;;;5.07;76.45
7834;BME280;3962;42.696;23.354;2022-12-18T13:42:39;96546.28;;;5.08;76.46
7834;BME280;3962;42.696;23.354;2022-12-18T13:45:45;96538.72;;;5.18;76.37